Time;durP1;ratioP1;P1;durP2;ratioP2;P2;SDS_P1;SDS_P2;PMS_P1;PMS_P2;Temp;Humidity;BMP_temperature;BMP_pressure;BME280_temperature;BME280_humidity;BME280_pressure;Samples;Min_cycle;Max_cycle;Signal;HPM_P1;HPM_P2
2021/12/08 00:00:25;;;;;;;6.70;4.30;;;;;;;0.98;91.59;99487.22;5021209;28;20155;-81
2021/12/08 00:02:52;;;;;;;6.22;4.05;;;;;;;1.01;91.52;99478.66;5052315;28;20041;-82
2021/12/08 00:05:20;;;;;;;7.25;4.03;;;;;;;1.07;90.61;99473.56;5049221;28;20053;-83
2021/12/08 00:07:47;;;;;;;8.65;3.38;;;;;;;1.13;89.76;99470.19;5034750;28;20057;-85
2021/12/08 00:10:28;;;;;;;8.00;3.63;;;;;;;1.18;89.34;99478.84;5041074;28;20118;-83
2021/12/08 00:13:03;;;;;;;6.72;3.95;;;;;;;1.25;88.15;99479.75;5029394;28;20568;-84
2021/12/08 00:15:45;;;;;;;5.13;2.60;;;;;;;1.31;86.80;99460.03;5049170;28;20051;-81
2021/12/08 00:18:18;;;;;;;4.65;2.08;;;;;;;1.37;86.58;99466.13;5054746;28;20045;-85
2021/12/08 00:20:47;;;;;;;7.13;2.03;;;;;;;1.43;86.46;99461.88;5038323;28;20516;-82
2021/12/08 00:23:15;;;;;;;3.38;2.20;;;;;;;1.46;85.57;99449.03;5057014;28;20052;-83
2021/12/08 00:25:43;;;;;;;5.88;2.75;;;;;;;1.48;85.82;99456.75;5026220;28;20040;-83
2021/12/08 00:28:11;;;;;;;3.75;2.05;;;;;;;1.47;85.28;99443.03;5022612;28;20617;-84
2021/12/08 00:30:42;;;;;;;6.68;2.78;;;;;;;1.46;85.43;99440.41;5045606;28;20126;-84
2021/12/08 00:33:10;;;;;;;5.70;2.20;;;;;;;1.46;85.82;99450.72;5016649;28;20446;-82
2021/12/08 00:35:38;;;;;;;2.85;2.28;;;;;;;1.46;86.04;99453.31;5050007;28;20053;-85
2021/12/08 00:38:06;;;;;;;4.32;2.55;;;;;;;1.47;85.69;99453.34;5030660;28;20048;-85
2021/12/08 00:40:32;;;;;;;7.78;2.20;;;;;;;1.49;85.13;99454.19;5031878;28;20200;-84
2021/12/08 00:42:59;;;;;;;4.38;2.50;;;;;;;1.55;85.40;99457.69;5063893;28;20045;-82
2021/12/08 00:45:32;;;;;;;5.80;2.45;;;;;;;1.56;85.11;99460.25;5048062;28;20162;-81
2021/12/08 00:47:59;;;;;;;8.68;3.75;;;;;;;1.58;84.92;99444.81;5031686;28;20062;-82
2021/12/08 00:50:32;;;;;;;3.53;2.25;;;;;;;1.62;84.67;99441.41;5064592;28;20048;-82
2021/12/08 00:53:00;;;;;;;10.52;4.38;;;;;;;1.64;84.33;99432.84;5041474;28;20147;-82
2021/12/08 00:55:28;;;;;;;4.10;2.72;;;;;;;1.65;84.29;99421.63;5063069;28;20516;-83
2021/12/08 00:57:55;;;;;;;4.70;2.75;;;;;;;1.70;84.22;99416.53;5047086;28;20526;-82
2021/12/08 01:00:40;;;;;;;3.20;2.75;;;;;;;1.71;84.54;99404.47;5047372;28;20041;-85
2021/12/08 01:03:07;;;;;;;5.65;3.20;;;;;;;1.70;83.57;99395.03;5052560;28;20098;-83
2021/12/08 01:05:51;;;;;;;5.60;3.28;;;;;;;1.71;83.68;99407.94;5031616;28;20053;-84
2021/12/08 01:08:19;;;;;;;6.00;2.88;;;;;;;1.72;83.58;99399.34;5032849;28;20055;-85
2021/12/08 01:10:49;;;;;;;5.22;3.03;;;;;;;1.75;84.08;99393.34;5018827;28;20185;-87
2021/12/08 01:13:17;;;;;;;6.13;2.95;;;;;;;1.74;83.25;99384.72;5035687;28;20570;-86
2021/12/08 01:15:51;;;;;;;4.47;3.25;;;;;;;1.76;82.90;99382.16;5014342;28;20126;-86
2021/12/08 01:18:19;;;;;;;6.53;3.25;;;;;;;1.76;82.46;99377.00;5017114;28;20053;-82
2021/12/08 01:20:49;;;;;;;7.97;3.33;;;;;;;1.73;82.72;99380.41;5035700;28;20049;-87
2021/12/08 01:23:18;;;;;;;7.47;3.85;;;;;;;1.74;82.87;99371.84;5029314;28;20060;-82
2021/12/08 01:25:45;;;;;;;7.97;4.25;;;;;;;1.72;82.63;99368.41;5065266;28;20051;-84
2021/12/08 01:28:11;;;;;;;3.95;2.50;;;;;;;1.75;82.36;99357.22;5044461;28;20190;-85
2021/12/08 01:30:39;;;;;;;7.28;2.33;;;;;;;1.78;81.41;99360.66;5034691;28;20067;-81
2021/12/08 01:33:06;;;;;;;8.43;3.10;;;;;;;1.80;81.88;99350.38;5050838;28;20033;-82
2021/12/08 01:35:32;;;;;;;4.70;2.60;;;;;;;1.79;81.55;99334.03;5031610;28;20384;-84
2021/12/08 01:37:59;;;;;;;10.85;3.38;;;;;;;1.78;81.10;99328.84;5046077;28;20087;-85
2021/12/08 01:40:25;;;;;;;8.02;3.15;;;;;;;1.79;81.30;99313.38;5031492;28;20045;-83
2021/12/08 01:42:56;;;;;;;7.70;2.75;;;;;;;1.76;81.65;99300.47;5018318;28;20076;-82
2021/12/08 01:48:16;;;;;;;2.50;2.30;;;;;;;1.77;81.13;99283.25;5032410;28;20040;-81
2021/12/08 01:50:48;;;;;;;3.70;2.08;;;;;;;1.81;80.65;99282.41;5038123;28;20563;-82
2021/12/08 01:53:16;;;;;;;4.05;2.30;;;;;;;1.85;80.75;99285.88;5016447;28;21533;-85
2021/12/08 01:55:43;;;;;;;3.83;2.08;;;;;;;1.85;80.16;99288.47;5048671;28;20049;-85
2021/12/08 01:58:11;;;;;;;8.10;3.28;;;;;;;1.86;79.58;99280.72;5014318;28;20055;-85
2021/12/08 02:00:42;;;;;;;3.03;1.83;;;;;;;1.89;79.39;99282.44;5031621;28;20045;-85
2021/12/08 02:03:09;;;;;;;6.88;2.90;;;;;;;1.91;79.57;99273.00;5066293;28;20045;-82
2021/12/08 02:05:36;;;;;;;4.47;2.55;;;;;;;1.96;78.46;99282.47;5048622;28;20068;-83
2021/12/08 02:08:04;;;;;;;5.70;3.25;;;;;;;1.99;78.10;99294.53;5049061;28;20059;-85
2021/12/08 02:10:31;;;;;;;4.15;2.92;;;;;;;2.01;78.44;99308.31;5065316;28;20049;-85
2021/12/08 02:12:58;;;;;;;2.47;1.80;;;;;;;2.02;78.68;99312.63;5065150;28;20415;-86
2021/12/08 02:15:25;;;;;;;2.28;2.08;;;;;;;2.04;78.48;99320.38;5047457;28;20056;-81
2021/12/08 02:17:56;;;;;;;2.63;1.95;;;;;;;2.05;78.42;99315.22;5050628;28;20130;-81
2021/12/08 02:20:26;;;;;;;3.72;2.28;;;;;;;2.05;78.38;99309.22;5044007;28;20585;-83
2021/12/08 02:22:52;;;;;;;4.15;2.22;;;;;;;2.09;78.11;99319.53;5034159;28;20048;-86
2021/12/08 02:25:27;;;;;;;4.78;2.17;;;;;;;2.12;77.25;99319.53;5049219;28;20053;-85
2021/12/08 02:27:57;;;;;;;4.88;1.63;;;;;;;2.15;77.53;99305.78;5034702;28;20063;-81
2021/12/08 02:30:31;;;;;;;5.78;1.70;;;;;;;2.18;76.72;99292.91;5064467;28;20053;-85
2021/12/08 02:46:51;;;;;;;;;;;;;;;2.11;80.63;99266.22;5044473;28;20060;-82
2021/12/08 02:49:20;;;;;;;;;;;;;;;2.07;80.56;99261.00;5031563;28;19925;-85
2021/12/08 02:51:47;;;;;;;8.00;2.85;;;;;;;2.06;81.26;99265.31;5047588;28;20469;-82
2021/12/08 02:54:14;;;;;;;2.55;1.55;;;;;;;2.01;82.12;99256.72;5049119;28;20123;-83
2021/12/08 02:56:41;;;;;;;1.85;1.30;;;;;;;2.00;82.55;99248.97;5046264;28;20049;-82
2021/12/08 02:59:08;;;;;;;3.92;1.27;;;;;;;1.98;82.59;99254.09;5050172;28;20049;-86
2021/12/08 03:01:37;;;;;;;1.90;1.52;;;;;;;1.95;83.54;99260.09;5019938;28;20542;-83
2021/12/08 03:04:07;;;;;;;2.88;1.30;;;;;;;1.95;83.52;99259.25;5050304;28;20048;-83
2021/12/08 03:06:35;;;;;;;5.40;1.77;;;;;;;1.96;83.52;99250.66;5034150;28;20049;-83
2021/12/08 03:09:05;;;;;;;3.83;1.60;;;;;;;1.96;83.58;99248.94;5049954;28;20511;-82
2021/12/08 03:11:32;;;;;;;2.80;1.83;;;;;;;1.97;84.23;99258.41;5035074;28;20514;-83
2021/12/08 03:14:08;;;;;;;5.05;2.30;;;;;;;1.98;84.68;99248.94;5060988;28;20051;-84
2021/12/08 03:16:40;;;;;;;2.53;1.42;;;;;;;1.96;84.12;99241.19;5049171;28;21520;-87
2021/12/08 03:19:10;;;;;;;2.42;1.40;;;;;;;1.97;84.51;99248.09;5051245;28;20064;-83
2021/12/08 03:21:37;;;;;;;3.03;1.98;;;;;;;1.96;84.60;99245.50;5030534;28;20049;-86
2021/12/08 03:24:17;;;;;;;3.15;2.30;;;;;;;1.92;85.17;99236.88;5048951;28;20043;-82
2021/12/08 03:26:51;;;;;;;5.45;1.40;;;;;;;1.93;85.37;99238.63;5027787;28;20503;-83
2021/12/08 03:29:25;;;;;;;5.00;1.90;;;;;;;1.94;85.51;99236.88;5053965;28;20068;-85
2021/12/08 03:31:54;;;;;;;2.08;1.20;;;;;;;1.95;85.05;99238.63;5047490;28;20041;-82
2021/12/08 03:34:25;;;;;;;1.30;1.20;;;;;;;1.94;84.82;99244.63;5030475;28;20072;-81
2021/12/08 03:36:52;;;;;;;1.48;1.38;;;;;;;1.94;84.58;99242.94;5063638;28;20052;-84
2021/12/08 03:39:19;;;;;;;3.47;1.38;;;;;;;1.96;84.71;99250.66;5046604;28;20061;-82
2021/12/08 03:41:46;;;;;;;4.13;1.10;;;;;;;1.96;84.79;99256.69;5063478;28;20060;-85
2021/12/08 03:44:13;;;;;;;5.85;1.98;;;;;;;1.97;84.97;99253.25;5035153;28;20045;-82
2021/12/08 03:46:42;;;;;;;3.85;1.55;;;;;;;1.99;85.56;99250.66;5043166;28;20172;-81
2021/12/08 03:49:14;;;;;;;3.58;1.52;;;;;;;1.95;85.53;99244.63;5065193;28;20052;-86
2021/12/08 03:51:41;;;;;;;5.90;1.60;;;;;;;1.92;86.07;99243.78;5066344;28;20395;-82
2021/12/08 03:54:09;;;;;;;3.70;1.75;;;;;;;1.93;86.26;99235.16;5032241;28;20048;-82
2021/12/08 03:56:36;;;;;;;1.75;1.10;;;;;;;1.91;86.68;99248.06;5062219;28;20053;-83
2021/12/08 03:59:06;;;;;;;1.60;1.10;;;;;;;1.92;86.24;99248.94;5028305;28;20071;-85
2021/12/08 04:01:35;;;;;;;3.38;1.35;;;;;;;1.94;86.51;99252.38;5048672;28;20055;-84
2021/12/08 04:04:08;;;;;;;1.20;0.98;;;;;;;1.95;85.40;99265.28;5013763;28;20403;-83
2021/12/08 04:06:44;;;;;;;3.38;1.85;;;;;;;2.01;84.49;99254.13;5042394;28;20068;-83
2021/12/08 04:09:24;;;;;;;1.80;1.40;;;;;;;2.04;84.10;99250.69;5048325;28;20045;-84
2021/12/08 04:11:51;;;;;;;2.45;1.40;;;;;;;2.06;84.02;99255.00;5018237;28;20056;-82
2021/12/08 04:14:22;;;;;;;2.13;1.33;;;;;;;2.10;83.65;99261.00;5030645;28;20130;-84
2021/12/08 04:17:04;;;;;;;3.10;1.65;;;;;;;2.14;83.74;99262.78;5045619;28;20037;-84
2021/12/08 04:19:34;;;;;;;2.63;1.27;;;;;;;2.18;83.45;99258.44;5065444;28;20431;-83
2021/12/08 04:22:10;;;;;;;3.90;1.38;;;;;;;2.18;83.15;99261.03;5030107;28;20508;-85
2021/12/08 04:24:40;;;;;;;3.05;1.45;;;;;;;2.18;83.65;99256.75;5032642;28;20108;-86
2021/12/08 04:27:16;;;;;;;3.78;1.75;;;;;;;2.15;82.96;99267.94;5041619;28;20160;-85
2021/12/08 04:29:46;;;;;;;8.30;2.42;;;;;;;2.17;83.61;99252.44;5017016;28;20053;-84
2021/12/08 04:32:17;;;;;;;4.65;1.73;;;;;;;2.14;83.80;99260.19;5051075;28;20044;-83
2021/12/08 04:34:49;;;;;;;2.55;1.67;;;;;;;2.09;84.19;99262.75;5047255;28;20056;-83
2021/12/08 04:37:25;;;;;;;1.60;1.17;;;;;;;2.07;84.75;99266.19;5050113;28;20079;-86
2021/12/08 04:40:17;;;;;;;3.30;1.80;;;;;;;2.04;85.10;99268.75;5065038;28;20056;-84
2021/12/08 04:42:56;;;;;;;3.33;1.50;;;;;;;2.01;86.62;99286.81;5049539;28;20045;-83
2021/12/08 04:45:33;;;;;;;1.95;1.75;;;;;;;1.94;87.24;99263.56;5066116;28;20148;-83
2021/12/08 04:48:14;;;;;;;1.75;1.52;;;;;;;1.88;88.46;99267.81;5061972;28;21854;-84
2021/12/08 04:53:57;;;;;;;7.13;1.70;;;;;;;1.74;90.27;99276.38;5046809;28;20107;-86
2021/12/08 05:02:16;;;;;;;3.15;1.67;;;;;;;1.66;91.18;99265.16;5038898;28;20040;-83
2021/12/08 05:04:56;;;;;;;4.00;1.77;;;;;;;1.70;90.97;99264.31;5052180;28;20068;-83
2021/12/08 05:07:35;;;;;;;2.40;2.17;;;;;;;1.72;90.53;99272.94;5018540;28;20057;-84
2021/12/08 05:10:14;;;;;;;12.23;4.70;;;;;;;1.73;90.74;99276.38;5057642;28;20059;-84
2021/12/08 05:12:41;;;;;;;2.45;1.88;;;;;;;1.75;90.48;99277.25;5062046;28;20558;-85
2021/12/08 05:15:19;;;;;;;3.42;1.98;;;;;;;1.77;90.04;99285.84;5034716;28;20032;-83
2021/12/08 05:17:54;;;;;;;5.22;2.33;;;;;;;1.77;90.15;99275.53;5060899;28;20049;-83
2021/12/08 05:20:37;;;;;;;3.22;2.30;;;;;;;1.78;89.71;99282.41;5063783;28;20058;-84
2021/12/08 05:23:22;;;;;;;2.67;1.35;;;;;;;1.79;89.23;99279.84;5040651;28;20486;-85
2021/12/08 05:25:48;;;;;;;6.43;2.05;;;;;;;1.79;89.78;99282.41;5063376;28;20088;-83
2021/12/08 05:28:21;;;;;;;5.50;1.98;;;;;;;1.79;89.26;99282.41;5049113;28;20568;-84
2021/12/08 05:30:55;;;;;;;6.68;3.80;;;;;;;1.82;89.41;99279.00;5019469;28;20140;-82
2021/12/08 05:33:23;;;;;;;3.22;1.45;;;;;;;1.80;89.24;99281.56;5032443;28;20136;-84
2021/12/08 05:35:52;;;;;;;7.55;2.05;;;;;;;1.81;89.04;99275.56;5064252;28;20590;-83
2021/12/08 05:38:19;;;;;;;3.72;1.95;;;;;;;1.84;88.98;99287.63;5049302;28;20110;-85
2021/12/08 05:40:58;;;;;;;1.77;1.67;;;;;;;1.85;89.36;99289.31;5053527;28;20546;-82
2021/12/08 05:43:25;;;;;;;3.22;1.73;;;;;;;1.85;89.54;99270.41;5036332;28;20096;-86
2021/12/08 05:45:55;;;;;;;8.80;1.95;;;;;;;1.85;89.34;99289.31;5064189;28;20040;-85
2021/12/08 05:48:22;;;;;;;2.88;1.73;;;;;;;1.87;89.91;99279.03;5033290;28;20045;-86
2021/12/08 05:51:18;;;;;;;5.72;2.13;;;;;;;1.84;90.20;99274.72;5063181;28;20052;-84
2021/12/08 05:53:48;;;;;;;2.35;2.00;;;;;;;1.85;89.93;99273.81;5045285;28;20053;-82
2021/12/08 05:56:17;;;;;;;3.15;1.70;;;;;;;1.90;89.80;99273.88;5014412;28;20052;-85
2021/12/08 05:58:45;;;;;;;3.00;1.60;;;;;;;1.89;89.85;99256.66;5037457;28;20060;-82
2021/12/08 06:01:34;;;;;;;2.50;1.42;;;;;;;1.90;89.90;99266.97;5034267;28;20071;-84
2021/12/08 06:04:05;;;;;;;1.88;1.58;;;;;;;1.89;90.28;99260.09;5048936;28;20049;-84
2021/12/08 06:06:32;;;;;;;4.07;2.20;;;;;;;1.87;90.41;99259.22;5048461;28;20040;-82
2021/12/08 06:08:59;;;;;;;2.25;1.55;;;;;;;1.85;89.47;99260.94;5032167;28;20404;-85
2021/12/08 06:11:28;;;;;;;3.60;1.45;;;;;;;1.83;89.97;99260.06;5055159;28;20041;-85
2021/12/08 06:14:00;;;;;;;4.80;2.42;;;;;;;1.81;89.83;99247.19;5028184;28;20054;-88
2021/12/08 06:16:29;;;;;;;5.53;2.25;;;;;;;1.82;89.74;99260.94;5008559;28;20045;-84
2021/12/08 06:18:56;;;;;;;3.75;2.10;;;;;;;1.81;89.21;99261.78;5012750;28;20527;-85
2021/12/08 06:21:27;;;;;;;5.90;2.50;;;;;;;1.80;89.56;99253.19;5009724;28;20046;-83
2021/12/08 06:23:55;;;;;;;3.42;1.83;;;;;;;1.80;89.10;99260.94;5012408;28;20584;-84
2021/12/08 06:26:26;;;;;;;2.03;1.45;;;;;;;1.84;89.15;99276.41;4978753;28;20050;-84
2021/12/08 06:28:53;;;;;;;2.13;1.88;;;;;;;1.84;88.96;99263.50;5008240;28;20099;-85
2021/12/08 06:31:23;;;;;;;1.67;1.45;;;;;;;1.84;88.99;99272.13;5008985;28;20056;-83
2021/12/08 06:33:50;;;;;;;2.05;1.80;;;;;;;1.84;89.00;99263.50;5007826;28;20366;-84
2021/12/08 06:36:28;;;;;;;9.05;1.80;;;;;;;1.87;88.59;99266.13;4995572;28;20656;-83
2021/12/08 06:38:57;;;;;;;5.03;1.98;;;;;;;1.86;88.61;99270.41;5026647;28;20046;-82
2021/12/08 06:41:36;;;;;;;4.03;2.00;;;;;;;1.89;88.13;99278.19;5021676;28;20603;-87
2021/12/08 06:44:09;;;;;;;3.95;1.90;;;;;;;1.89;88.05;99273.00;4999559;28;20046;-83
2021/12/08 06:46:36;;;;;;;4.47;1.77;;;;;;;1.89;87.94;99279.88;5020446;28;20586;-82
2021/12/08 06:49:12;;;;;;;5.55;2.63;;;;;;;1.90;87.74;99276.44;5010000;28;20046;-83
2021/12/08 06:51:56;;;;;;;7.05;2.45;;;;;;;1.92;87.80;99303.13;5008824;28;20092;-87
2021/12/08 06:55:04;;;;;;;3.72;1.77;;;;;;;1.92;88.07;99308.28;5002773;28;20045;-84
2021/12/08 06:57:42;;;;;;;3.47;1.58;;;;;;;1.93;88.00;99304.84;4987176;28;20061;-83
2021/12/08 07:00:23;;;;;;;3.40;2.08;;;;;;;1.96;88.31;99297.13;4988751;28;20054;-87
2021/12/08 07:03:05;;;;;;;1.65;1.63;;;;;;;1.98;88.22;99301.44;5025223;28;20980;-85
2021/12/08 07:06:03;;;;;;;2.30;2.10;;;;;;;1.99;88.10;99304.88;5005976;28;20049;-83
2021/12/08 07:08:30;;;;;;;4.35;2.00;;;;;;;1.97;88.13;99302.28;5016321;28;20042;-84
2021/12/08 07:10:58;;;;;;;3.80;2.28;;;;;;;2.00;88.31;99305.75;5027930;28;22674;-86
2021/12/08 07:13:30;;;;;;;1.52;1.42;;;;;;;2.02;87.94;99304.00;5042183;28;20065;-83
2021/12/08 07:16:07;;;;;;;2.58;1.95;;;;;;;2.01;88.45;99307.44;5032514;28;20098;-82
2021/12/08 07:18:52;;;;;;;2.80;1.90;;;;;;;2.01;88.46;99307.44;5018924;28;20041;-82
2021/12/08 07:21:34;;;;;;;4.57;2.10;;;;;;;2.00;88.37;99305.75;5036543;28;20399;-82
2021/12/08 07:24:17;;;;;;;3.20;1.92;;;;;;;1.98;88.59;99309.19;5046890;28;20630;-86
2021/12/08 07:26:47;;;;;;;4.72;2.60;;;;;;;2.00;88.71;99313.50;5017596;28;20823;-83
2021/12/08 07:29:19;;;;;;;5.22;3.08;;;;;;;1.98;88.82;99322.09;5033101;28;20053;-84
2021/12/08 07:32:03;;;;;;;3.03;2.50;;;;;;;2.01;88.61;99328.09;5047283;28;20802;-84
2021/12/08 07:34:32;;;;;;;;;;;;;;;1.98;88.92;99328.94;5015268;28;20053;-86
2021/12/08 07:37:06;;;;;;;2.45;2.22;;;;;;;2.02;88.83;99328.13;5026516;28;19933;-83
2021/12/08 07:39:43;;;;;;;7.07;2.60;;;;;;;2.04;88.16;99326.41;5028745;28;20906;-86
2021/12/08 07:42:30;;;;;;;2.67;2.20;;;;;;;2.05;88.16;99317.81;5014151;28;20555;-85
2021/12/08 07:45:01;;;;;;;2.35;2.15;;;;;;;2.05;88.57;99320.38;5031222;28;20044;-83
2021/12/08 07:47:30;;;;;;;3.35;2.67;;;;;;;2.05;88.38;99317.81;5048115;28;21068;-87
2021/12/08 07:50:05;;;;;;;4.18;2.63;;;;;;;2.07;88.46;99330.72;5059380;28;20380;-85
2021/12/08 07:52:40;;;;;;;2.55;2.13;;;;;;;2.06;88.40;99324.69;5043944;28;20155;-84
2021/12/08 07:55:14;;;;;;;2.60;2.38;;;;;;;2.06;88.70;99322.13;5046932;28;20697;-83
2021/12/08 07:57:42;;;;;;;2.70;2.20;;;;;;;2.11;88.52;99335.91;5032448;28;20064;-86
2021/12/08 08:00:27;;;;;;;2.45;2.22;;;;;;;2.13;88.83;99353.97;5033471;28;20056;-87
2021/12/08 08:02:55;;;;;;;2.75;2.42;;;;;;;2.17;88.47;99345.38;5026737;28;20052;-85
2021/12/08 08:05:28;;;;;;;3.10;2.65;;;;;;;2.19;88.42;99342.81;5032714;28;20118;-86
2021/12/08 08:08:01;;;;;;;8.85;2.70;;;;;;;2.18;88.45;99346.22;5058695;28;20044;-83
2021/12/08 08:10:29;;;;;;;4.10;2.45;;;;;;;2.20;88.37;99331.63;5047972;28;20068;-84
2021/12/08 08:13:00;;;;;;;2.28;2.08;;;;;;;2.17;88.91;99337.63;5032773;28;20052;-84
2021/12/08 08:15:31;;;;;;;5.93;3.28;;;;;;;2.17;88.75;99341.94;5030769;28;20052;-86
2021/12/08 08:18:05;;;;;;;5.03;2.53;;;;;;;2.17;89.00;99336.78;5036794;28;20049;-82
2021/12/08 08:20:37;;;;;;;4.10;3.08;;;;;;;2.15;88.75;99342.81;5064132;28;20589;-83
2021/12/08 08:23:05;;;;;;;4.18;2.20;;;;;;;2.15;89.09;99339.34;5049456;28;20105;-88
2021/12/08 08:25:43;;;;;;;3.55;2.50;;;;;;;2.15;89.35;99342.81;5070192;28;20124;-84
2021/12/08 08:28:11;;;;;;;5.70;3.38;;;;;;;2.15;89.54;99344.50;5019540;28;20054;-85
2021/12/08 08:30:51;;;;;;;5.95;3.00;;;;;;;2.21;89.14;99348.84;5054326;28;20052;-83
2021/12/08 08:33:18;;;;;;;2.75;2.55;;;;;;;2.23;88.94;99344.53;5063217;28;20045;-84
2021/12/08 08:35:51;;;;;;;7.28;2.67;;;;;;;2.26;89.12;99348.00;5053459;28;20068;-85
2021/12/08 08:38:27;;;;;;;3.90;2.28;;;;;;;2.31;88.87;99353.19;5068067;28;20049;-87
2021/12/08 08:41:44;;;;;;;3.70;2.85;;;;;;;2.33;88.67;99353.19;5043094;28;20048;-83
2021/12/08 08:44:35;;;;;;;4.18;2.40;;;;;;;2.41;88.79;99346.31;5048611;28;20053;-83
2021/12/08 08:47:12;;;;;;;6.57;3.30;;;;;;;2.42;88.60;99351.47;5029186;28;20227;-83
2021/12/08 08:49:42;;;;;;;4.95;2.83;;;;;;;2.50;88.24;99340.34;5034032;28;20060;-85
2021/12/08 08:52:26;;;;;;;2.75;2.45;;;;;;;2.60;87.80;99352.41;5015632;28;20063;-83
2021/12/08 08:54:56;;;;;;;3.53;2.70;;;;;;;2.66;87.66;99367.94;5032795;28;20079;-82
2021/12/08 08:57:33;;;;;;;4.40;2.80;;;;;;;2.67;87.41;99367.06;5028405;28;20057;-82
2021/12/08 09:00:21;;;;;;;3.75;3.30;;;;;;;2.69;87.32;99344.69;5019054;28;20053;-82
2021/12/08 09:02:51;;;;;;;5.80;2.88;;;;;;;2.70;87.02;99353.28;5033590;28;20053;-85
2021/12/08 09:05:32;;;;;;;3.33;3.08;;;;;;;2.72;87.24;99354.16;5015663;28;20487;-84
2021/12/08 09:08:01;;;;;;;4.47;2.80;;;;;;;2.78;87.38;99372.28;5033041;28;20060;-86
2021/12/08 09:10:42;;;;;;;6.70;3.28;;;;;;;2.85;87.24;99353.31;5051673;28;20768;-84
2021/12/08 09:13:31;;;;;;;3.83;3.40;;;;;;;2.87;86.12;99345.56;5033718;28;20069;-83
2021/12/08 09:16:07;;;;;;;4.00;2.72;;;;;;;2.88;86.75;99345.59;5032623;28;20415;-86
2021/12/08 09:18:52;;;;;;;2.70;2.47;;;;;;;2.88;86.63;99366.25;5047229;28;20140;-86
2021/12/08 09:21:41;;;;;;;4.60;2.88;;;;;;;2.93;86.90;99366.25;5066961;28;20052;-86
2021/12/08 09:24:37;;;;;;;6.35;3.08;;;;;;;2.95;86.32;99369.72;5032102;28;20508;-86
2021/12/08 09:27:10;;;;;;;4.13;2.97;;;;;;;3.00;86.44;99361.94;5035362;28;20064;-86
2021/12/08 09:29:55;;;;;;;4.47;2.67;;;;;;;3.08;86.08;99368.00;5052908;28;20045;-85
2021/12/08 09:32:39;;;;;;;5.55;3.00;;;;;;;3.13;86.03;99367.13;5031940;28;20044;-86
2021/12/08 09:35:15;;;;;;;4.05;2.70;;;;;;;3.25;85.58;99368.00;5018722;28;20037;-86
2021/12/08 09:37:51;;;;;;;5.38;3.22;;;;;;;3.31;85.07;99370.56;5053081;28;20134;-86
2021/12/08 09:40:33;;;;;;;4.65;2.80;;;;;;;3.33;84.41;99374.03;5069052;28;20053;-86
2021/12/08 09:43:11;;;;;;;5.80;3.55;;;;;;;3.36;84.43;99365.41;5031798;28;20055;-86
2021/12/08 09:45:52;;;;;;;3.85;3.13;;;;;;;3.38;84.39;99374.06;5052528;28;20045;-86
2021/12/08 09:48:19;;;;;;;6.25;3.13;;;;;;;3.38;84.16;99386.97;5034794;28;20052;-86
2021/12/08 09:50:46;;;;;;;4.88;2.65;;;;;;;3.44;83.81;99385.25;5035465;28;21211;-86
2021/12/08 09:53:14;;;;;;;3.13;2.35;;;;;;;3.43;84.09;99390.44;5018189;28;20143;-85
2021/12/08 09:55:40;;;;;;;5.07;2.63;;;;;;;3.48;84.33;99375.75;5060347;28;20041;-86
2021/12/08 09:58:08;;;;;;;3.33;2.53;;;;;;;3.49;84.69;99374.88;5035959;28;20628;-86
2021/12/08 10:00:41;;;;;;;4.07;2.55;;;;;;;3.51;84.25;99364.53;5057278;28;20154;-85
2021/12/08 10:03:09;;;;;;;3.92;2.42;;;;;;;3.52;84.15;99354.19;5032998;28;20653;-86
2021/12/08 10:05:39;;;;;;;4.82;2.03;;;;;;;3.55;84.45;99359.34;5052398;28;20899;-86
2021/12/08 10:08:06;;;;;;;2.65;2.45;;;;;;;3.52;84.65;99369.72;5046825;28;20057;-86
2021/12/08 10:10:34;;;;;;;5.10;2.90;;;;;;;3.53;84.74;99365.41;5036653;28;20056;-86
2021/12/08 10:13:01;;;;;;;8.55;2.92;;;;;;;3.57;84.63;99367.13;5051124;28;20768;-86
2021/12/08 10:15:28;;;;;;;4.07;2.10;;;;;;;3.56;84.65;99381.78;5054249;28;20055;-86
2021/12/08 10:17:57;;;;;;;3.88;2.22;;;;;;;3.58;84.85;99379.19;5040170;28;20053;-85
2021/12/08 10:20:38;;;;;;;3.08;2.88;;;;;;;3.61;85.04;99377.47;5057102;28;21261;-86
2021/12/08 10:23:17;;;;;;;5.57;3.28;;;;;;;3.63;85.15;99373.13;5059200;28;20040;-86
2021/12/08 10:26:12;;;;;;;3.65;2.72;;;;;;;3.74;84.97;99380.03;5054296;28;20045;-85
2021/12/08 10:28:49;;;;;;;4.43;2.38;;;;;;;3.76;84.44;99381.75;5055531;28;20049;-86
2021/12/08 10:31:26;;;;;;;5.18;2.58;;;;;;;3.78;84.55;99373.97;5076367;28;20056;-84
2021/12/08 10:34:09;;;;;;;4.38;2.58;;;;;;;3.78;85.02;99366.22;5033586;28;20037;-85
2021/12/08 10:36:55;;;;;;;2.67;2.47;;;;;;;3.77;84.08;99359.34;5035755;28;20168;-86
2021/12/08 10:39:32;;;;;;;10.73;4.03;;;;;;;3.78;84.43;99356.75;5021328;28;20404;-86
2021/12/08 10:42:36;;;;;;;3.22;2.28;;;;;;;3.82;84.22;99355.00;5036595;28;20049;-86
2021/12/08 10:45:12;;;;;;;5.97;3.75;;;;;;;3.89;84.44;99337.72;5019319;28;20130;-86
2021/12/08 10:47:49;;;;;;;6.70;3.15;;;;;;;3.92;83.82;99354.09;5048256;28;20047;-86
2021/12/08 10:56:24;;;;;;;5.93;2.63;;;;;;;4.08;82.29;99374.75;5016661;28;20029;-85
2021/12/08 10:58:53;;;;;;;6.47;3.10;;;;;;;4.12;82.77;99371.31;5066277;28;20151;-86
2021/12/08 11:01:23;;;;;;;5.32;2.60;;;;;;;4.18;82.69;99360.91;5065992;28;20056;-85
2021/12/08 11:04:00;;;;;;;3.95;2.83;;;;;;;4.25;82.06;99367.81;5014201;28;20459;-86
2021/12/08 11:06:33;;;;;;;5.80;2.90;;;;;;;4.33;82.53;99366.91;5018655;28;20047;-86
2021/12/08 11:09:01;;;;;;;6.70;2.38;;;;;;;4.39;81.84;99377.25;5029154;28;20954;-86
2021/12/08 11:11:32;;;;;;;9.77;3.38;;;;;;;4.43;82.28;99377.25;5026332;28;20049;-86
2021/12/08 11:14:04;;;;;;;3.47;2.83;;;;;;;4.51;82.24;99360.78;5029550;28;20053;-86
2021/12/08 11:16:37;;;;;;;3.80;2.10;;;;;;;4.55;81.43;99362.47;5026800;28;20052;-86
2021/12/08 11:19:25;;;;;;;6.25;3.03;;;;;;;4.57;81.38;99359.00;5046280;28;20049;-86
2021/12/08 11:21:56;;;;;;;3.15;2.55;;;;;;;4.60;81.56;99355.53;5047063;28;20041;-85
2021/12/08 11:24:45;;;;;;;4.75;2.97;;;;;;;4.63;81.50;99358.13;5059845;28;21183;-86
2021/12/08 11:27:30;;;;;;;3.17;2.45;;;;;;;4.65;80.53;99364.16;5046323;28;20045;-86
2021/12/08 11:29:57;;;;;;;3.13;1.98;;;;;;;4.66;81.08;99360.69;5020948;28;20041;-86
2021/12/08 11:32:24;;;;;;;2.88;2.10;;;;;;;4.70;80.75;99358.97;5042567;28;21445;-85
2021/12/08 11:34:52;;;;;;;5.60;2.13;;;;;;;4.74;80.94;99358.91;5023063;28;20118;-86
2021/12/08 11:37:32;;;;;;;2.42;2.22;;;;;;;4.74;80.64;99360.66;5031056;28;20179;-86
2021/12/08 11:40:01;;;;;;;6.95;2.95;;;;;;;4.80;80.37;99371.00;5049367;28;20040;-86
2021/12/08 11:42:36;;;;;;;2.30;2.10;;;;;;;4.84;80.50;99375.28;5032194;28;20496;-86
2021/12/08 11:45:16;;;;;;;5.43;2.53;;;;;;;4.91;79.95;99381.28;5053673;28;20509;-86
2021/12/08 11:47:44;;;;;;;4.65;2.47;;;;;;;4.91;80.06;99376.97;5065661;28;20102;-86
2021/12/08 11:50:19;;;;;;;4.75;2.15;;;;;;;4.90;80.31;99372.66;5037762;28;20063;-86
2021/12/08 11:52:53;;;;;;;3.83;2.58;;;;;;;4.91;80.34;99373.50;5037236;28;21026;-86
2021/12/08 11:55:25;;;;;;;3.50;1.83;;;;;;;4.97;80.19;99368.28;5025444;28;20065;-86
2021/12/08 11:57:58;;;;;;;2.60;2.35;;;;;;;5.02;80.19;99363.94;5039904;28;20045;-86
2021/12/08 12:00:32;;;;;;;2.17;1.77;;;;;;;5.06;80.23;99365.63;5026378;28;20075;-87
2021/12/08 12:03:10;;;;;;;2.20;1.80;;;;;;;5.08;80.62;99360.44;5075780;28;20139;-86
2021/12/08 12:05:47;;;;;;;2.22;2.00;;;;;;;5.11;79.92;99363.00;5071592;28;20041;-85
2021/12/08 12:08:19;;;;;;;;;;;;;;;5.08;79.44;99366.47;5042843;28;20095;-86
2021/12/08 12:10:50;;;;;;;1.67;1.58;;;;;;;5.13;79.73;99369.03;5049042;28;19980;-86
2021/12/08 12:13:17;;;;;;;4.57;2.03;;;;;;;5.16;79.99;99374.19;5045854;28;20056;-86
2021/12/08 12:15:49;;;;;;;2.45;2.03;;;;;;;5.17;79.61;99373.31;5013593;28;20041;-85
2021/12/08 12:18:20;;;;;;;4.32;1.75;;;;;;;5.13;79.24;99380.25;5027545;28;20749;-86
2021/12/08 12:24:56;;;;;;;3.90;2.55;;;;;;;4.78;80.96;99375.31;5024683;28;20049;-86
2021/12/08 12:27:56;;;;;;;2.42;2.17;;;;;;;4.67;81.36;99382.28;5033383;28;20036;-86
2021/12/08 12:30:42;;;;;;;2.20;1.50;;;;;;;4.59;81.77;99384.94;5057909;28;20123;-86
2021/12/08 12:33:25;;;;;;;2.28;2.00;;;;;;;4.52;82.41;99376.31;5064793;28;20076;-86
2021/12/08 12:35:57;;;;;;;4.97;2.00;;;;;;;4.49;82.49;99371.16;5065553;28;20041;-86
2021/12/08 12:38:39;;;;;;;3.50;2.30;;;;;;;4.48;83.00;99356.47;5062239;28;20046;-86
2021/12/08 12:41:09;;;;;;;1.65;1.52;;;;;;;4.53;82.96;99353.88;5032838;28;20084;-86
2021/12/08 12:43:39;;;;;;;5.28;2.65;;;;;;;4.56;82.86;99346.94;5046399;28;20172;-86
2021/12/08 12:46:14;;;;;;;3.30;2.00;;;;;;;4.55;82.39;99347.81;5047028;28;20106;-86